sensor_id;sensor_type;location;lat;lon;timestamp;P1;durP1;ratioP1;P2;durP2;ratioP2
76051;SDS011;64751;48.708;9.710;2023-02-23T00:00:24;3.60;;;3.15;;
76051;SDS011;64751;48.708;9.710;2023-02-23T00:02:54;3.67;;;2.85;;
76051;SDS011;64751;48.708;9.710;2023-02-23T00:05:26;3.47;;;2.60;;
76051;SDS011;64751;48.708;9.710;2023-02-23T00:07:55;4.03;;;3.10;;
76051;SDS011;64751;48.708;9.710;2023-02-23T00:10:24;3.05;;;2.75;;
76051;SDS011;64751;48.708;9.710;2023-02-23T00:12:56;4.30;;;3.05;;
76051;SDS011;64751;48.708;9.710;2023-02-23T00:15:27;3.15;;;2.75;;
76051;SDS011;64751;48.708;9.710;2023-02-23T00:17:55;3.47;;;3.10;;
76051;SDS011;64751;48.708;9.710;2023-02-23T00:20:24;3.97;;;3.58;;
76051;SDS011;64751;48.708;9.710;2023-02-23T00:22:53;3.90;;;3.10;;
76051;SDS011;64751;48.708;9.710;2023-02-23T00:25:22;4.00;;;3.47;;
76051;SDS011;64751;48.708;9.710;2023-02-23T00:27:51;4.32;;;3.47;;
76051;SDS011;64751;48.708;9.710;2023-02-23T00:30:21;3.92;;;3.00;;
76051;SDS011;64751;48.708;9.710;2023-02-23T00:32:49;3.60;;;3.28;;
76051;SDS011;64751;48.708;9.710;2023-02-23T00:35:18;3.75;;;3.22;;
76051;SDS011;64751;48.708;9.710;2023-02-23T00:37:46;3.83;;;3.38;;
76051;SDS011;64751;48.708;9.710;2023-02-23T00:40:15;3.67;;;3.30;;
76051;SDS011;64751;48.708;9.710;2023-02-23T00:42:46;4.15;;;3.42;;
76051;SDS011;64751;48.708;9.710;2023-02-23T00:45:17;4.63;;;3.13;;
76051;SDS011;64751;48.708;9.710;2023-02-23T00:47:46;3.22;;;2.67;;
76051;SDS011;64751;48.708;9.710;2023-02-23T00:50:15;3.70;;;3.22;;
76051;SDS011;64751;48.708;9.710;2023-02-23T00:52:43;3.38;;;3.08;;
76051;SDS011;64751;48.708;9.710;2023-02-23T00:55:11;3.78;;;2.95;;
76051;SDS011;64751;48.708;9.710;2023-02-23T00:57:40;3.35;;;2.83;;
76051;SDS011;64751;48.708;9.710;2023-02-23T01:00:08;3.80;;;3.33;;
76051;SDS011;64751;48.708;9.710;2023-02-23T01:02:46;3.28;;;2.60;;
76051;SDS011;64751;48.708;9.710;2023-02-23T01:05:14;3.45;;;2.90;;
76051;SDS011;64751;48.708;9.710;2023-02-23T01:07:42;4.03;;;3.05;;
76051;SDS011;64751;48.708;9.710;2023-02-23T01:10:12;3.67;;;3.33;;
76051;SDS011;64751;48.708;9.710;2023-02-23T01:12:47;4.82;;;3.38;;
76051;SDS011;64751;48.708;9.710;2023-02-23T01:15:16;3.15;;;2.63;;
76051;SDS011;64751;48.708;9.710;2023-02-23T01:17:44;3.83;;;3.03;;
76051;SDS011;64751;48.708;9.710;2023-02-23T01:20:15;3.80;;;2.85;;
76051;SDS011;64751;48.708;9.710;2023-02-23T01:22:44;4.13;;;3.20;;
76051;SDS011;64751;48.708;9.710;2023-02-23T01:25:14;4.20;;;2.85;;
76051;SDS011;64751;48.708;9.710;2023-02-23T01:27:45;3.70;;;3.20;;
76051;SDS011;64751;48.708;9.710;2023-02-23T01:30:13;3.70;;;3.40;;
76051;SDS011;64751;48.708;9.710;2023-02-23T01:32:43;3.47;;;2.80;;
76051;SDS011;64751;48.708;9.710;2023-02-23T01:35:11;3.30;;;2.78;;
76051;SDS011;64751;48.708;9.710;2023-02-23T01:37:41;4.72;;;2.90;;
76051;SDS011;64751;48.708;9.710;2023-02-23T01:40:11;3.53;;;2.83;;
76051;SDS011;64751;48.708;9.710;2023-02-23T01:42:41;4.13;;;3.13;;
76051;SDS011;64751;48.708;9.710;2023-02-23T01:45:23;3.45;;;2.95;;
76051;SDS011;64751;48.708;9.710;2023-02-23T01:47:54;3.78;;;3.03;;
76051;SDS011;64751;48.708;9.710;2023-02-23T01:50:27;4.32;;;3.00;;
76051;SDS011;64751;48.708;9.710;2023-02-23T01:53:00;3.47;;;3.17;;
76051;SDS011;64751;48.708;9.710;2023-02-23T01:55:28;4.72;;;3.42;;
76051;SDS011;64751;48.708;9.710;2023-02-23T01:58:07;3.75;;;3.17;;
76051;SDS011;64751;48.708;9.710;2023-02-23T02:00:41;4.20;;;3.38;;
76051;SDS011;64751;48.708;9.710;2023-02-23T02:03:13;3.92;;;3.33;;
76051;SDS011;64751;48.708;9.710;2023-02-23T02:05:45;4.35;;;3.22;;
76051;SDS011;64751;48.708;9.710;2023-02-23T02:08:17;4.03;;;3.28;;
76051;SDS011;64751;48.708;9.710;2023-02-23T02:10:49;4.03;;;3.25;;
76051;SDS011;64751;48.708;9.710;2023-02-23T02:13:21;4.18;;;3.40;;
76051;SDS011;64751;48.708;9.710;2023-02-23T02:16:01;3.63;;;3.25;;
76051;SDS011;64751;48.708;9.710;2023-02-23T02:22:14;4.15;;;3.03;;
76051;SDS011;64751;48.708;9.710;2023-02-23T02:25:16;3.45;;;2.97;;
76051;SDS011;64751;48.708;9.710;2023-02-23T02:37:28;3.35;;;2.97;;
76051;SDS011;64751;48.708;9.710;2023-02-23T02:40:05;3.15;;;2.67;;
76051;SDS011;64751;48.708;9.710;2023-02-23T02:42:50;3.70;;;2.88;;
76051;SDS011;64751;48.708;9.710;2023-02-23T02:45:28;3.40;;;3.00;;
76051;SDS011;64751;48.708;9.710;2023-02-23T02:48:02;4.07;;;3.00;;
76051;SDS011;64751;48.708;9.710;2023-02-23T02:50:40;3.58;;;3.20;;
76051;SDS011;64751;48.708;9.710;2023-02-23T02:53:13;3.75;;;3.08;;
76051;SDS011;64751;48.708;9.710;2023-02-23T02:55:46;3.47;;;3.08;;
76051;SDS011;64751;48.708;9.710;2023-02-23T02:58:15;3.83;;;3.30;;
76051;SDS011;64751;48.708;9.710;2023-02-23T03:00:45;3.63;;;3.08;;
76051;SDS011;64751;48.708;9.710;2023-02-23T03:03:32;3.65;;;3.13;;
76051;SDS011;64751;48.708;9.710;2023-02-23T03:06:21;3.42;;;3.00;;
76051;SDS011;64751;48.708;9.710;2023-02-23T03:09:13;3.38;;;3.08;;
76051;SDS011;64751;48.708;9.710;2023-02-23T03:12:09;4.43;;;3.15;;
76051;SDS011;64751;48.708;9.710;2023-02-23T03:15:03;3.80;;;3.13;;
76051;SDS011;64751;48.708;9.710;2023-02-23T03:18:04;4.57;;;3.70;;
76051;SDS011;64751;48.708;9.710;2023-02-23T03:21:03;3.65;;;3.35;;
76051;SDS011;64751;48.708;9.710;2023-02-23T03:23:55;4.72;;;3.28;;
76051;SDS011;64751;48.708;9.710;2023-02-23T03:26:51;3.75;;;3.35;;
76051;SDS011;64751;48.708;9.710;2023-02-23T03:29:41;3.72;;;3.20;;
76051;SDS011;64751;48.708;9.710;2023-02-23T03:32:34;3.85;;;3.35;;
76051;SDS011;64751;48.708;9.710;2023-02-23T03:35:29;3.72;;;3.33;;
76051;SDS011;64751;48.708;9.710;2023-02-23T03:38:25;3.97;;;3.58;;
76051;SDS011;64751;48.708;9.710;2023-02-23T03:41:16;3.47;;;3.03;;
76051;SDS011;64751;48.708;9.710;2023-02-23T03:44:07;3.47;;;3.13;;
76051;SDS011;64751;48.708;9.710;2023-02-23T03:46:56;4.53;;;3.42;;
76051;SDS011;64751;48.708;9.710;2023-02-23T03:49:45;4.13;;;3.28;;
76051;SDS011;64751;48.708;9.710;2023-02-23T03:52:35;3.75;;;3.20;;
76051;SDS011;64751;48.708;9.710;2023-02-23T03:55:28;4.25;;;3.40;;
76051;SDS011;64751;48.708;9.710;2023-02-23T03:58:17;4.20;;;3.78;;
76051;SDS011;64751;48.708;9.710;2023-02-23T04:01:08;4.10;;;3.70;;
76051;SDS011;64751;48.708;9.710;2023-02-23T04:03:55;3.70;;;3.30;;
76051;SDS011;64751;48.708;9.710;2023-02-23T04:06:42;3.95;;;3.45;;
76051;SDS011;64751;48.708;9.710;2023-02-23T04:09:28;4.18;;;3.50;;
76051;SDS011;64751;48.708;9.710;2023-02-23T04:12:14;3.90;;;3.35;;
76051;SDS011;64751;48.708;9.710;2023-02-23T04:15:06;3.80;;;3.42;;
76051;SDS011;64751;48.708;9.710;2023-02-23T04:20:05;4.30;;;3.55;;
76051;SDS011;64751;48.708;9.710;2023-02-23T04:22:35;3.92;;;3.22;;
76051;SDS011;64751;48.708;9.710;2023-02-23T04:25:03;4.85;;;3.75;;
76051;SDS011;64751;48.708;9.710;2023-02-23T04:27:34;4.75;;;3.42;;
76051;SDS011;64751;48.708;9.710;2023-02-23T04:30:02;3.90;;;3.50;;
76051;SDS011;64751;48.708;9.710;2023-02-23T04:32:30;3.63;;;3.30;;
76051;SDS011;64751;48.708;9.710;2023-02-23T04:34:59;4.07;;;3.67;;
76051;SDS011;64751;48.708;9.710;2023-02-23T04:37:26;4.50;;;3.65;;
76051;SDS011;64751;48.708;9.710;2023-02-23T04:39:54;4.75;;;3.65;;
76051;SDS011;64751;48.708;9.710;2023-02-23T04:42:21;4.68;;;4.18;;
76051;SDS011;64751;48.708;9.710;2023-02-23T04:44:49;5.32;;;4.57;;
76051;SDS011;64751;48.708;9.710;2023-02-23T04:47:16;4.43;;;4.03;;
76051;SDS011;64751;48.708;9.710;2023-02-23T04:49:44;5.22;;;4.20;;
76051;SDS011;64751;48.708;9.710;2023-02-23T04:52:12;4.18;;;3.70;;
76051;SDS011;64751;48.708;9.710;2023-02-23T04:54:40;4.07;;;3.67;;
76051;SDS011;64751;48.708;9.710;2023-02-23T04:57:08;3.80;;;3.45;;
76051;SDS011;64751;48.708;9.710;2023-02-23T04:59:35;4.20;;;3.80;;
76051;SDS011;64751;48.708;9.710;2023-02-23T05:02:03;4.90;;;4.10;;
76051;SDS011;64751;48.708;9.710;2023-02-23T05:04:31;4.32;;;3.92;;
76051;SDS011;64751;48.708;9.710;2023-02-23T05:07:00;4.32;;;3.92;;
76051;SDS011;64751;48.708;9.710;2023-02-23T05:09:30;4.88;;;4.32;;
76051;SDS011;64751;48.708;9.710;2023-02-23T05:11:57;4.60;;;4.03;;
76051;SDS011;64751;48.708;9.710;2023-02-23T05:14:25;5.25;;;4.07;;
76051;SDS011;64751;48.708;9.710;2023-02-23T05:16:53;5.07;;;4.47;;
76051;SDS011;64751;48.708;9.710;2023-02-23T05:19:20;5.10;;;4.00;;
76051;SDS011;64751;48.708;9.710;2023-02-23T05:21:48;5.97;;;5.38;;
76051;SDS011;64751;48.708;9.710;2023-02-23T05:24:15;5.63;;;5.13;;
76051;SDS011;64751;48.708;9.710;2023-02-23T05:26:44;5.45;;;4.95;;
76051;SDS011;64751;48.708;9.710;2023-02-23T05:29:13;5.75;;;5.18;;
76051;SDS011;64751;48.708;9.710;2023-02-23T05:31:40;5.45;;;4.53;;
76051;SDS011;64751;48.708;9.710;2023-02-23T05:34:08;6.10;;;5.50;;
76051;SDS011;64751;48.708;9.710;2023-02-23T05:36:35;8.32;;;5.80;;
76051;SDS011;64751;48.708;9.710;2023-02-23T05:39:03;5.25;;;4.75;;
76051;SDS011;64751;48.708;9.710;2023-02-23T05:41:31;6.15;;;5.53;;
76051;SDS011;64751;48.708;9.710;2023-02-23T05:44:01;5.82;;;5.22;;
76051;SDS011;64751;48.708;9.710;2023-02-23T05:46:28;6.07;;;5.53;;
76051;SDS011;64751;48.708;9.710;2023-02-23T05:48:59;6.40;;;5.47;;
76051;SDS011;64751;48.708;9.710;2023-02-23T05:51:36;6.20;;;5.60;;
76051;SDS011;64751;48.708;9.710;2023-02-23T05:54:06;5.10;;;4.43;;
76051;SDS011;64751;48.708;9.710;2023-02-23T05:56:35;5.60;;;4.75;;
76051;SDS011;64751;48.708;9.710;2023-02-23T05:59:04;7.35;;;4.90;;
76051;SDS011;64751;48.708;9.710;2023-02-23T06:01:31;5.30;;;4.80;;
76051;SDS011;64751;48.708;9.710;2023-02-23T06:03:59;5.60;;;4.57;;
76051;SDS011;64751;48.708;9.710;2023-02-23T06:06:26;5.45;;;4.95;;
76051;SDS011;64751;48.708;9.710;2023-02-23T06:08:54;5.80;;;4.90;;
76051;SDS011;64751;48.708;9.710;2023-02-23T06:11:22;5.18;;;4.60;;
76051;SDS011;64751;48.708;9.710;2023-02-23T06:13:49;5.45;;;4.78;;
76051;SDS011;64751;48.708;9.710;2023-02-23T06:16:18;5.90;;;5.20;;
76051;SDS011;64751;48.708;9.710;2023-02-23T06:18:46;5.13;;;4.63;;
76051;SDS011;64751;48.708;9.710;2023-02-23T06:21:16;5.18;;;4.68;;
76051;SDS011;64751;48.708;9.710;2023-02-23T06:23:44;5.50;;;5.00;;
76051;SDS011;64751;48.708;9.710;2023-02-23T06:26:11;5.18;;;4.47;;
76051;SDS011;64751;48.708;9.710;2023-02-23T06:28:39;5.03;;;4.53;;
76051;SDS011;64751;48.708;9.710;2023-02-23T06:31:11;6.32;;;5.70;;
76051;SDS011;64751;48.708;9.710;2023-02-23T06:37:48;6.20;;;5.60;;
76051;SDS011;64751;48.708;9.710;2023-02-23T06:40:16;5.57;;;5.07;;
76051;SDS011;64751;48.708;9.710;2023-02-23T06:42:44;5.75;;;5.25;;
76051;SDS011;64751;48.708;9.710;2023-02-23T06:45:12;6.50;;;4.95;;
76051;SDS011;64751;48.708;9.710;2023-02-23T06:47:43;6.03;;;5.40;;
76051;SDS011;64751;48.708;9.710;2023-02-23T06:50:12;6.90;;;5.57;;
76051;SDS011;64751;48.708;9.710;2023-02-23T06:52:52;6.13;;;5.45;;
76051;SDS011;64751;48.708;9.710;2023-02-23T06:56:03;5.40;;;4.75;;
76051;SDS011;64751;48.708;9.710;2023-02-23T06:58:46;6.65;;;6.05;;
76051;SDS011;64751;48.708;9.710;2023-02-23T07:01:23;6.45;;;5.85;;
76051;SDS011;64751;48.708;9.710;2023-02-23T07:04:09;6.85;;;6.20;;
76051;SDS011;64751;48.708;9.710;2023-02-23T07:09:47;6.65;;;5.72;;
76051;SDS011;64751;48.708;9.710;2023-02-23T07:12:52;6.72;;;6.03;;
76051;SDS011;64751;48.708;9.710;2023-02-23T07:15:56;6.95;;;5.43;;
76051;SDS011;64751;48.708;9.710;2023-02-23T07:23:09;7.22;;;6.43;;
76051;SDS011;64751;48.708;9.710;2023-02-23T07:52:27;7.28;;;6.05;;
76051;SDS011;64751;48.708;9.710;2023-02-23T08:10:42;7.97;;;6.25;;
76051;SDS011;64751;48.708;9.710;2023-02-23T08:31:30;7.07;;;6.28;;
76051;SDS011;64751;48.708;9.710;2023-02-23T08:33:58;7.47;;;6.70;;
76051;SDS011;64751;48.708;9.710;2023-02-23T08:36:25;6.75;;;6.05;;
76051;SDS011;64751;48.708;9.710;2023-02-23T08:38:53;6.13;;;5.55;;
76051;SDS011;64751;48.708;9.710;2023-02-23T08:41:28;6.35;;;5.65;;
76051;SDS011;64751;48.708;9.710;2023-02-23T08:43:57;6.40;;;5.80;;
76051;SDS011;64751;48.708;9.710;2023-02-23T08:46:25;6.90;;;6.20;;
76051;SDS011;64751;48.708;9.710;2023-02-23T08:48:54;6.90;;;6.20;;
76051;SDS011;64751;48.708;9.710;2023-02-23T08:51:21;7.00;;;6.07;;
76051;SDS011;64751;48.708;9.710;2023-02-23T08:53:49;7.10;;;6.47;;
76051;SDS011;64751;48.708;9.710;2023-02-23T08:56:17;7.45;;;6.53;;
76051;SDS011;64751;48.708;9.710;2023-02-23T08:58:45;6.03;;;5.43;;
76051;SDS011;64751;48.708;9.710;2023-02-23T09:01:14;6.50;;;5.90;;
76051;SDS011;64751;48.708;9.710;2023-02-23T09:03:44;6.68;;;6.03;;
76051;SDS011;64751;48.708;9.710;2023-02-23T09:06:14;6.22;;;5.63;;
76051;SDS011;64751;48.708;9.710;2023-02-23T09:08:45;6.97;;;6.28;;
76051;SDS011;64751;48.708;9.710;2023-02-23T09:11:13;6.53;;;5.93;;
76051;SDS011;64751;48.708;9.710;2023-02-23T09:13:40;6.60;;;6.00;;
76051;SDS011;64751;48.708;9.710;2023-02-23T09:16:08;5.90;;;5.13;;
76051;SDS011;64751;48.708;9.710;2023-02-23T09:18:38;7.43;;;5.95;;
76051;SDS011;64751;48.708;9.710;2023-02-23T09:21:07;6.53;;;5.93;;
76051;SDS011;64751;48.708;9.710;2023-02-23T09:23:45;7.35;;;6.65;;
76051;SDS011;64751;48.708;9.710;2023-02-23T09:26:16;7.00;;;6.15;;
76051;SDS011;64751;48.708;9.710;2023-02-23T09:28:44;6.72;;;6.13;;
76051;SDS011;64751;48.708;9.710;2023-02-23T09:31:13;6.55;;;5.90;;
76051;SDS011;64751;48.708;9.710;2023-02-23T09:33:41;5.85;;;5.35;;
76051;SDS011;64751;48.708;9.710;2023-02-23T09:36:10;6.57;;;5.97;;
76051;SDS011;64751;48.708;9.710;2023-02-23T09:38:41;6.82;;;6.13;;
76051;SDS011;64751;48.708;9.710;2023-02-23T09:41:21;6.53;;;5.90;;
76051;SDS011;64751;48.708;9.710;2023-02-23T09:44:08;7.05;;;5.70;;
76051;SDS011;64751;48.708;9.710;2023-02-23T09:46:44;6.25;;;5.65;;
76051;SDS011;64751;48.708;9.710;2023-02-23T09:49:21;5.50;;;5.00;;
76051;SDS011;64751;48.708;9.710;2023-02-23T09:51:52;6.65;;;5.50;;
76051;SDS011;64751;48.708;9.710;2023-02-23T09:54:23;5.75;;;5.15;;
76051;SDS011;64751;48.708;9.710;2023-02-23T09:56:58;5.28;;;4.78;;
76051;SDS011;64751;48.708;9.710;2023-02-23T09:59:28;5.03;;;4.63;;
76051;SDS011;64751;48.708;9.710;2023-02-23T10:01:57;4.63;;;4.05;;
76051;SDS011;64751;48.708;9.710;2023-02-23T10:04:32;5.30;;;4.30;;
76051;SDS011;64751;48.708;9.710;2023-02-23T10:07:08;5.22;;;3.80;;
76051;SDS011;64751;48.708;9.710;2023-02-23T10:09:43;5.07;;;4.10;;
76051;SDS011;64751;48.708;9.710;2023-02-23T10:12:25;4.78;;;4.32;;
76051;SDS011;64751;48.708;9.710;2023-02-23T10:15:01;4.00;;;3.60;;
76051;SDS011;64751;48.708;9.710;2023-02-23T10:17:38;4.22;;;3.75;;
76051;SDS011;64751;48.708;9.710;2023-02-23T10:20:12;4.28;;;3.83;;
76051;SDS011;64751;48.708;9.710;2023-02-23T10:22:48;4.53;;;3.92;;
76051;SDS011;64751;48.708;9.710;2023-02-23T10:25:18;3.80;;;3.47;;
76051;SDS011;64751;48.708;9.710;2023-02-23T10:27:51;4.80;;;3.80;;
76051;SDS011;64751;48.708;9.710;2023-02-23T10:30:25;3.83;;;3.42;;
76051;SDS011;64751;48.708;9.710;2023-02-23T10:32:56;3.65;;;3.25;;
76051;SDS011;64751;48.708;9.710;2023-02-23T10:35:29;4.88;;;3.67;;
76051;SDS011;64751;48.708;9.710;2023-02-23T10:37:59;3.33;;;3.03;;
76051;SDS011;64751;48.708;9.710;2023-02-23T10:40:29;3.78;;;3.17;;
76051;SDS011;64751;48.708;9.710;2023-02-23T10:43:00;2.95;;;2.58;;
76051;SDS011;64751;48.708;9.710;2023-02-23T10:45:28;3.15;;;2.60;;
76051;SDS011;64751;48.708;9.710;2023-02-23T10:48:01;3.05;;;2.75;;
76051;SDS011;64751;48.708;9.710;2023-02-23T10:50:32;3.47;;;2.75;;
76051;SDS011;64751;48.708;9.710;2023-02-23T10:53:08;3.10;;;2.55;;
76051;SDS011;64751;48.708;9.710;2023-02-23T10:55:42;3.20;;;2.53;;
76051;SDS011;64751;48.708;9.710;2023-02-23T10:58:13;2.85;;;2.50;;
76051;SDS011;64751;48.708;9.710;2023-02-23T11:00:49;3.15;;;2.40;;
76051;SDS011;64751;48.708;9.710;2023-02-23T11:03:22;3.67;;;2.20;;
76051;SDS011;64751;48.708;9.710;2023-02-23T11:05:54;3.00;;;2.03;;
76051;SDS011;64751;48.708;9.710;2023-02-23T11:08:23;2.40;;;1.80;;
76051;SDS011;64751;48.708;9.710;2023-02-23T11:10:59;2.45;;;1.95;;
76051;SDS011;64751;48.708;9.710;2023-02-23T11:13:55;2.30;;;1.70;;
76051;SDS011;64751;48.708;9.710;2023-02-23T11:16:24;2.20;;;1.60;;
76051;SDS011;64751;48.708;9.710;2023-02-23T11:18:55;2.22;;;1.60;;
76051;SDS011;64751;48.708;9.710;2023-02-23T11:21:25;3.00;;;1.67;;
76051;SDS011;64751;48.708;9.710;2023-02-23T11:23:59;2.45;;;1.58;;
76051;SDS011;64751;48.708;9.710;2023-02-23T11:26:34;2.22;;;1.60;;
76051;SDS011;64751;48.708;9.710;2023-02-23T11:29:13;2.35;;;1.80;;
76051;SDS011;64751;48.708;9.710;2023-02-23T11:31:46;2.58;;;1.60;;
76051;SDS011;64751;48.708;9.710;2023-02-23T11:34:19;1.80;;;1.30;;
76051;SDS011;64751;48.708;9.710;2023-02-23T11:37:00;2.65;;;1.30;;
76051;SDS011;64751;48.708;9.710;2023-02-23T11:39:30;2.33;;;1.30;;
76051;SDS011;64751;48.708;9.710;2023-02-23T11:42:15;2.60;;;1.45;;
76051;SDS011;64751;48.708;9.710;2023-02-23T11:44:50;1.80;;;1.38;;
76051;SDS011;64751;48.708;9.710;2023-02-23T11:47:19;2.70;;;1.58;;
76051;SDS011;64751;48.708;9.710;2023-02-23T11:49:48;2.00;;;1.48;;
76051;SDS011;64751;48.708;9.710;2023-02-23T11:52:17;2.30;;;1.48;;
76051;SDS011;64751;48.708;9.710;2023-02-23T11:54:49;2.22;;;1.60;;
76051;SDS011;64751;48.708;9.710;2023-02-23T11:57:19;1.88;;;1.60;;
76051;SDS011;64751;48.708;9.710;2023-02-23T11:59:48;2.25;;;1.77;;
76051;SDS011;64751;48.708;9.710;2023-02-23T12:02:20;2.10;;;1.70;;
76051;SDS011;64751;48.708;9.710;2023-02-23T12:07:24;2.08;;;1.40;;
76051;SDS011;64751;48.708;9.710;2023-02-23T12:10:01;2.33;;;1.52;;
76051;SDS011;64751;48.708;9.710;2023-02-23T12:12:37;2.33;;;1.50;;
76051;SDS011;64751;48.708;9.710;2023-02-23T12:15:14;3.10;;;1.50;;
76051;SDS011;64751;48.708;9.710;2023-02-23T12:17:50;2.55;;;1.80;;
76051;SDS011;64751;48.708;9.710;2023-02-23T12:20:22;1.85;;;1.50;;
76051;SDS011;64751;48.708;9.710;2023-02-23T12:22:53;1.88;;;1.45;;
76051;SDS011;64751;48.708;9.710;2023-02-23T12:25:26;2.45;;;1.35;;
76051;SDS011;64751;48.708;9.710;2023-02-23T12:28:00;3.22;;;1.70;;
76051;SDS011;64751;48.708;9.710;2023-02-23T12:30:37;3.22;;;1.45;;
76051;SDS011;64751;48.708;9.710;2023-02-23T12:33:10;2.60;;;1.83;;
76051;SDS011;64751;48.708;9.710;2023-02-23T12:35:44;1.83;;;1.33;;
76051;SDS011;64751;48.708;9.710;2023-02-23T12:38:19;2.13;;;1.50;;
76051;SDS011;64751;48.708;9.710;2023-02-23T12:40:58;1.88;;;1.20;;
76051;SDS011;64751;48.708;9.710;2023-02-23T12:43:33;1.40;;;1.05;;
76051;SDS011;64751;48.708;9.710;2023-02-23T12:46:11;3.10;;;1.50;;
76051;SDS011;64751;48.708;9.710;2023-02-23T12:48:45;2.28;;;1.70;;
76051;SDS011;64751;48.708;9.710;2023-02-23T12:51:21;1.98;;;1.40;;
76051;SDS011;64751;48.708;9.710;2023-02-23T12:53:54;2.08;;;1.08;;
76051;SDS011;64751;48.708;9.710;2023-02-23T12:56:31;2.00;;;1.55;;
76051;SDS011;64751;48.708;9.710;2023-02-23T12:59:18;2.20;;;1.25;;
76051;SDS011;64751;48.708;9.710;2023-02-23T13:02:00;3.08;;;1.08;;
76051;SDS011;64751;48.708;9.710;2023-02-23T13:04:39;2.28;;;1.50;;
76051;SDS011;64751;48.708;9.710;2023-02-23T13:07:28;1.95;;;1.30;;
76051;SDS011;64751;48.708;9.710;2023-02-23T13:10:09;1.75;;;1.10;;
76051;SDS011;64751;48.708;9.710;2023-02-23T13:12:48;1.48;;;1.10;;
76051;SDS011;64751;48.708;9.710;2023-02-23T13:15:23;1.77;;;1.13;;
76051;SDS011;64751;48.708;9.710;2023-02-23T13:17:58;2.22;;;1.20;;
76051;SDS011;64751;48.708;9.710;2023-02-23T13:20:36;2.10;;;1.50;;
76051;SDS011;64751;48.708;9.710;2023-02-23T13:23:10;1.85;;;1.20;;
76051;SDS011;64751;48.708;9.710;2023-02-23T13:25:44;2.40;;;1.23;;
76051;SDS011;64751;48.708;9.710;2023-02-23T13:28:17;1.23;;;1.10;;
76051;SDS011;64751;48.708;9.710;2023-02-23T13:30:54;1.50;;;0.90;;
76051;SDS011;64751;48.708;9.710;2023-02-23T13:33:25;2.28;;;1.25;;
76051;SDS011;64751;48.708;9.710;2023-02-23T13:35:56;1.58;;;1.00;;
76051;SDS011;64751;48.708;9.710;2023-02-23T13:38:27;1.63;;;1.20;;
76051;SDS011;64751;48.708;9.710;2023-02-23T13:41:06;2.05;;;1.10;;
76051;SDS011;64751;48.708;9.710;2023-02-23T13:43:42;1.10;;;1.00;;
76051;SDS011;64751;48.708;9.710;2023-02-23T13:46:18;1.70;;;1.13;;
76051;SDS011;64751;48.708;9.710;2023-02-23T13:48:56;2.50;;;1.25;;
76051;SDS011;64751;48.708;9.710;2023-02-23T13:51:29;2.05;;;1.10;;
76051;SDS011;64751;48.708;9.710;2023-02-23T13:54:04;2.20;;;1.33;;
76051;SDS011;64751;48.708;9.710;2023-02-23T13:56:48;1.33;;;1.15;;
76051;SDS011;64751;48.708;9.710;2023-02-23T13:59:19;1.30;;;1.10;;
76051;SDS011;64751;48.708;9.710;2023-02-23T14:01:49;2.05;;;1.27;;
76051;SDS011;64751;48.708;9.710;2023-02-23T14:04:23;1.85;;;1.38;;
76051;SDS011;64751;48.708;9.710;2023-02-23T14:06:56;1.85;;;1.30;;
76051;SDS011;64751;48.708;9.710;2023-02-23T14:09:27;1.60;;;1.27;;
76051;SDS011;64751;48.708;9.710;2023-02-23T14:12:10;1.83;;;1.33;;
76051;SDS011;64751;48.708;9.710;2023-02-23T14:14:44;1.70;;;1.20;;
76051;SDS011;64751;48.708;9.710;2023-02-23T14:20:22;1.42;;;1.05;;
76051;SDS011;64751;48.708;9.710;2023-02-23T14:23:13;1.63;;;1.02;;
76051;SDS011;64751;48.708;9.710;2023-02-23T14:26:10;2.70;;;1.30;;
76051;SDS011;64751;48.708;9.710;2023-02-23T14:28:40;2.40;;;1.40;;
76051;SDS011;64751;48.708;9.710;2023-02-23T14:31:16;1.70;;;1.20;;
76051;SDS011;64751;48.708;9.710;2023-02-23T14:36:35;2.20;;;1.30;;
76051;SDS011;64751;48.708;9.710;2023-02-23T14:39:08;1.92;;;1.30;;
76051;SDS011;64751;48.708;9.710;2023-02-23T14:41:43;2.90;;;1.65;;
76051;SDS011;64751;48.708;9.710;2023-02-23T14:44:16;1.60;;;1.20;;
76051;SDS011;64751;48.708;9.710;2023-02-23T14:46:52;1.88;;;1.30;;
76051;SDS011;64751;48.708;9.710;2023-02-23T14:49:24;1.63;;;1.05;;
76051;SDS011;64751;48.708;9.710;2023-02-23T14:51:55;1.30;;;1.20;;
76051;SDS011;64751;48.708;9.710;2023-02-23T14:54:26;2.85;;;1.00;;
76051;SDS011;64751;48.708;9.710;2023-02-23T14:56:59;2.00;;;1.30;;
76051;SDS011;64751;48.708;9.710;2023-02-23T14:59:29;2.10;;;1.20;;
76051;SDS011;64751;48.708;9.710;2023-02-23T15:02:06;2.22;;;1.10;;
76051;SDS011;64751;48.708;9.710;2023-02-23T15:04:36;2.20;;;1.20;;
76051;SDS011;64751;48.708;9.710;2023-02-23T15:07:05;1.67;;;1.10;;
76051;SDS011;64751;48.708;9.710;2023-02-23T15:09:43;1.42;;;1.08;;
76051;SDS011;64751;48.708;9.710;2023-02-23T15:12:13;1.75;;;1.15;;
76051;SDS011;64751;48.708;9.710;2023-02-23T15:14:45;1.85;;;1.10;;
76051;SDS011;64751;48.708;9.710;2023-02-23T15:17:15;2.35;;;1.00;;
76051;SDS011;64751;48.708;9.710;2023-02-23T15:19:46;1.60;;;1.02;;
76051;SDS011;64751;48.708;9.710;2023-02-23T15:22:23;1.10;;;1.00;;
76051;SDS011;64751;48.708;9.710;2023-02-23T15:25:46;2.28;;;1.13;;
76051;SDS011;64751;48.708;9.710;2023-02-23T15:28:44;2.58;;;1.23;;
76051;SDS011;64751;48.708;9.710;2023-02-23T15:31:38;1.50;;;1.00;;
76051;SDS011;64751;48.708;9.710;2023-02-23T15:35:53;1.85;;;1.15;;
76051;SDS011;64751;48.708;9.710;2023-02-23T15:49:56;1.10;;;0.70;;
76051;SDS011;64751;48.708;9.710;2023-02-23T15:53:25;1.90;;;1.00;;
76051;SDS011;64751;48.708;9.710;2023-02-23T15:56:12;1.75;;;1.10;;
76051;SDS011;64751;48.708;9.710;2023-02-23T16:00:09;1.60;;;0.80;;
76051;SDS011;64751;48.708;9.710;2023-02-23T16:03:55;2.22;;;1.40;;
76051;SDS011;64751;48.708;9.710;2023-02-23T16:13:24;1.95;;;1.25;;
76051;SDS011;64751;48.708;9.710;2023-02-23T16:15:55;1.83;;;1.23;;
76051;SDS011;64751;48.708;9.710;2023-02-23T16:18:27;1.65;;;0.93;;
76051;SDS011;64751;48.708;9.710;2023-02-23T16:21:21;1.92;;;1.10;;
76051;SDS011;64751;48.708;9.710;2023-02-23T16:24:07;1.35;;;1.02;;
76051;SDS011;64751;48.708;9.710;2023-02-23T16:26:52;1.58;;;1.10;;
76051;SDS011;64751;48.708;9.710;2023-02-23T16:29:41;2.10;;;1.42;;
76051;SDS011;64751;48.708;9.710;2023-02-23T16:32:24;2.50;;;1.15;;
76051;SDS011;64751;48.708;9.710;2023-02-23T16:38:34;2.17;;;1.30;;
76051;SDS011;64751;48.708;9.710;2023-02-23T16:41:14;1.27;;;1.00;;
76051;SDS011;64751;48.708;9.710;2023-02-23T16:44:12;1.35;;;1.20;;
76051;SDS011;64751;48.708;9.710;2023-02-23T16:46:57;1.38;;;1.13;;
76051;SDS011;64751;48.708;9.710;2023-02-23T16:49:52;1.90;;;1.10;;
76051;SDS011;64751;48.708;9.710;2023-02-23T16:52:40;2.72;;;1.60;;
76051;SDS011;64751;48.708;9.710;2023-02-23T16:55:14;1.67;;;1.00;;
76051;SDS011;64751;48.708;9.710;2023-02-23T16:57:54;1.60;;;1.10;;
76051;SDS011;64751;48.708;9.710;2023-02-23T17:01:26;1.67;;;1.10;;
76051;SDS011;64751;48.708;9.710;2023-02-23T17:04:07;1.77;;;1.08;;
76051;SDS011;64751;48.708;9.710;2023-02-23T17:07:58;1.33;;;1.00;;
76051;SDS011;64751;48.708;9.710;2023-02-23T17:10:35;1.60;;;1.08;;
76051;SDS011;64751;48.708;9.710;2023-02-23T17:13:18;1.92;;;1.20;;
76051;SDS011;64751;48.708;9.710;2023-02-23T17:15:56;1.50;;;1.30;;
76051;SDS011;64751;48.708;9.710;2023-02-23T17:18:40;1.88;;;1.00;;
76051;SDS011;64751;48.708;9.710;2023-02-23T17:21:13;1.35;;;1.05;;
76051;SDS011;64751;48.708;9.710;2023-02-23T17:23:48;2.00;;;1.38;;
76051;SDS011;64751;48.708;9.710;2023-02-23T17:26:58;1.27;;;0.93;;
76051;SDS011;64751;48.708;9.710;2023-02-23T17:36:59;2.30;;;1.25;;
76051;SDS011;64751;48.708;9.710;2023-02-23T17:49:35;1.98;;;1.23;;
76051;SDS011;64751;48.708;9.710;2023-02-23T17:53:16;2.42;;;1.20;;
76051;SDS011;64751;48.708;9.710;2023-02-23T18:00:24;1.33;;;1.00;;
76051;SDS011;64751;48.708;9.710;2023-02-23T18:23:31;1.85;;;1.10;;